URCIW UKKK-UKKK
Flight info
| Callsign | URCIW |
|---|---|
| Flight time | N/A |
| Altitude | 1500 |
| Route | UKKKN 5037N03027E 5053N03026E 5104N03024E 5116N03013E 5123N03006E 5120N02955E 5056N02954E 5033N03013E UKKKR |
| Aircraft | C172/L-V/N |
Departure
| Time | 2026-04-26 18:18 |
|---|---|
| Airport | Ihor Sikorsky Kyiv International Airport (Zhuliany) (UKKK) |
Arrival
| Time | N/A |
|---|---|
| Airport | Ihor Sikorsky Kyiv International Airport (Zhuliany) (UKKK) |
| Time | Latitude | Longitude | Altitude | Speed | Heading |
|---|---|---|---|---|---|
| 2026-04-26 17:58 | 50.40822 | 30.45131 | 574 ft | 0 kts | 320° |
| 2026-04-26 18:09 | 50.40823 | 30.45130 | 580 ft | 1 kts | 320° |
| 2026-04-26 18:09 | 50.40839 | 30.45085 | 582 ft | 7 kts | 283° |
| 2026-04-26 18:10 | 50.40822 | 30.45018 | 579 ft | 8 kts | 204° |
| 2026-04-26 18:10 | 50.40779 | 30.45059 | 579 ft | 8 kts | 133° |
| 2026-04-26 18:10 | 50.40740 | 30.45127 | 579 ft | 9 kts | 130° |
| 2026-04-26 18:10 | 50.40698 | 30.45203 | 580 ft | 10 kts | 130° |
| 2026-04-26 18:11 | 50.40654 | 30.45284 | 581 ft | 9 kts | 131° |
| 2026-04-26 18:11 | 50.40608 | 30.45366 | 582 ft | 11 kts | 131° |
| 2026-04-26 18:11 | 50.40552 | 30.45465 | 582 ft | 13 kts | 131° |
| 2026-04-26 18:11 | 50.40539 | 30.45488 | 583 ft | 0 kts | 130° |
| 2026-04-26 18:12 | 50.40539 | 30.45489 | 583 ft | 0 kts | 130° |
| 2026-04-26 18:12 | 50.40525 | 30.45516 | 583 ft | 8 kts | 129° |
| 2026-04-26 18:12 | 50.40488 | 30.45613 | 584 ft | 13 kts | 104° |
| 2026-04-26 18:12 | 50.40474 | 30.45769 | 585 ft | 16 kts | 96° |
| 2026-04-26 18:13 | 50.40462 | 30.45965 | 586 ft | 20 kts | 96° |
| 2026-04-26 18:13 | 50.40439 | 30.46159 | 588 ft | 16 kts | 130° |
| 2026-04-26 18:13 | 50.40333 | 30.46194 | 588 ft | 13 kts | 177° |
| 2026-04-26 18:13 | 50.40305 | 30.46197 | 588 ft | 0 kts | 176° |
| 2026-04-26 18:16 | 50.40256 | 30.46193 | 589 ft | 13 kts | 201° |
| 2026-04-26 18:16 | 50.40218 | 30.46050 | 588 ft | 23 kts | 265° |
| 2026-04-26 18:17 | 50.40193 | 30.45517 | 583 ft | 72 kts | 265° |
| 2026-04-26 18:17 | 50.40156 | 30.44629 | 683 ft | 85 kts | 267° |
| 2026-04-26 18:17 | 50.40108 | 30.43731 | 840 ft | 81 kts | 268° |
| 2026-04-26 18:17 | 50.40303 | 30.43037 | 1008 ft | 76 kts | 337° |
| 2026-04-26 18:18 | 50.40832 | 30.43158 | 1198 ft | 76 kts | 358° |
| 2026-04-26 18:18 | 50.41334 | 30.43310 | 1373 ft | 72 kts | 359° |
| 2026-04-26 18:18 | 50.41855 | 30.43553 | 1402 ft | 91 kts | 22° |
| 2026-04-26 18:18 | 50.42233 | 30.44510 | 1419 ft | 113 kts | 58° |
| 2026-04-26 18:19 | 50.42354 | 30.45791 | 1408 ft | 126 kts | 88° |
| 2026-04-26 18:19 | 50.42291 | 30.47162 | 1407 ft | 126 kts | 86° |
| 2026-04-26 18:19 | 50.42548 | 30.48318 | 1384 ft | 105 kts | 26° |
| 2026-04-26 18:19 | 50.43147 | 30.48898 | 1409 ft | 103 kts | 19° |
| 2026-04-26 18:20 | 50.43765 | 30.49529 | 1405 ft | 107 kts | 22° |
| 2026-04-26 18:20 | 50.44372 | 30.50202 | 1399 ft | 109 kts | 24° |
| 2026-04-26 18:20 | 50.44982 | 30.50904 | 1398 ft | 112 kts | 25° |
| 2026-04-26 18:20 | 50.45192 | 30.51149 | 1399 ft | 111 kts | 25° |
| 2026-04-26 18:21 | 50.46228 | 30.52371 | 1405 ft | 113 kts | 26° |
| 2026-04-26 18:21 | 50.46849 | 30.53112 | 1394 ft | 112 kts | 26° |
| 2026-04-26 18:21 | 50.47465 | 30.53838 | 1398 ft | 108 kts | 22° |
| 2026-04-26 18:21 | 50.48130 | 30.54221 | 1385 ft | 98 kts | 357° |
| 2026-04-26 18:22 | 50.48782 | 30.54168 | 1384 ft | 92 kts | 339° |
| 2026-04-26 18:22 | 50.49338 | 30.53806 | 1474 ft | 86 kts | 328° |
| 2026-04-26 18:22 | 50.49898 | 30.53406 | 1472 ft | 90 kts | 329° |
| 2026-04-26 18:22 | 50.50470 | 30.52997 | 1474 ft | 90 kts | 329° |
| 2026-04-26 18:23 | 50.51044 | 30.52584 | 1473 ft | 91 kts | 329° |
| 2026-04-26 18:23 | 50.51618 | 30.52173 | 1475 ft | 90 kts | 329° |
| 2026-04-26 18:23 | 50.52188 | 30.51760 | 1478 ft | 90 kts | 329° |
| 2026-04-26 18:23 | 50.52763 | 30.51345 | 1478 ft | 91 kts | 329° |
| 2026-04-26 18:24 | 50.53340 | 30.50929 | 1476 ft | 92 kts | 329° |
| 2026-04-26 18:24 | 50.53911 | 30.50516 | 1477 ft | 91 kts | 329° |
| 2026-04-26 18:24 | 50.54488 | 30.50099 | 1487 ft | 91 kts | 329° |
| 2026-04-26 18:24 | 50.55061 | 30.49684 | 1477 ft | 91 kts | 329° |
| 2026-04-26 18:25 | 50.55634 | 30.49271 | 1477 ft | 90 kts | 329° |
| 2026-04-26 18:25 | 50.56201 | 30.48862 | 1474 ft | 90 kts | 329° |
| 2026-04-26 18:25 | 50.56772 | 30.48448 | 1474 ft | 90 kts | 329° |
| 2026-04-26 18:25 | 50.57332 | 30.48043 | 1472 ft | 88 kts | 329° |
| 2026-04-26 18:26 | 50.57893 | 30.47637 | 1473 ft | 89 kts | 329° |
| 2026-04-26 18:26 | 50.58454 | 30.47230 | 1473 ft | 90 kts | 329° |
| 2026-04-26 18:26 | 50.59020 | 30.46821 | 1475 ft | 89 kts | 329° |
| 2026-04-26 18:26 | 50.59587 | 30.46411 | 1478 ft | 90 kts | 329° |
| 2026-04-26 18:27 | 50.60157 | 30.45998 | 1481 ft | 90 kts | 329° |
| 2026-04-26 18:27 | 50.60725 | 30.45586 | 1477 ft | 90 kts | 329° |
| 2026-04-26 18:27 | 50.61288 | 30.45180 | 1479 ft | 90 kts | 329° |
| 2026-04-26 18:27 | 50.61855 | 30.44769 | 1482 ft | 89 kts | 329° |
| 2026-04-26 18:28 | 50.62457 | 30.44492 | 1479 ft | 93 kts | 346° |
| 2026-04-26 18:28 | 50.63111 | 30.44481 | 1484 ft | 94 kts | 348° |
| 2026-04-26 18:28 | 50.63761 | 30.44462 | 1484 ft | 94 kts | 348° |
| 2026-04-26 18:28 | 50.64418 | 30.44445 | 1479 ft | 95 kts | 349° |
| 2026-04-26 18:29 | 50.65078 | 30.44429 | 1479 ft | 95 kts | 349° |
| 2026-04-26 18:29 | 50.65742 | 30.44412 | 1475 ft | 95 kts | 349° |
| 2026-04-26 18:29 | 50.66404 | 30.44396 | 1481 ft | 95 kts | 348° |
| 2026-04-26 18:29 | 50.67063 | 30.44380 | 1477 ft | 94 kts | 349° |
| 2026-04-26 18:30 | 50.67709 | 30.44363 | 1477 ft | 94 kts | 348° |
| 2026-04-26 18:30 | 50.68362 | 30.44347 | 1474 ft | 94 kts | 348° |
| 2026-04-26 18:30 | 50.69014 | 30.44330 | 1475 ft | 94 kts | 348° |
| 2026-04-26 18:30 | 50.69665 | 30.44314 | 1475 ft | 94 kts | 348° |
| 2026-04-26 18:31 | 50.70319 | 30.44297 | 1474 ft | 94 kts | 349° |
| 2026-04-26 18:31 | 50.70976 | 30.44281 | 1478 ft | 94 kts | 349° |
| 2026-04-26 18:31 | 50.71630 | 30.44265 | 1471 ft | 94 kts | 349° |
| 2026-04-26 18:31 | 50.72281 | 30.44249 | 1479 ft | 93 kts | 349° |
| 2026-04-26 18:32 | 50.72928 | 30.44233 | 1472 ft | 93 kts | 349° |
| 2026-04-26 18:32 | 50.73562 | 30.44217 | 1471 ft | 92 kts | 349° |
| 2026-04-26 18:32 | 50.74203 | 30.44201 | 1472 ft | 92 kts | 349° |
| 2026-04-26 18:32 | 50.74848 | 30.44184 | 1477 ft | 93 kts | 349° |
| 2026-04-26 18:33 | 50.75498 | 30.44168 | 1473 ft | 94 kts | 349° |
| 2026-04-26 18:33 | 50.76154 | 30.44151 | 1478 ft | 95 kts | 349° |
| 2026-04-26 18:33 | 50.76816 | 30.44135 | 1476 ft | 96 kts | 349° |
| 2026-04-26 18:33 | 50.77482 | 30.44119 | 1478 ft | 96 kts | 349° |
| 2026-04-26 18:34 | 50.78149 | 30.44102 | 1479 ft | 96 kts | 349° |
| 2026-04-26 18:34 | 50.78818 | 30.44085 | 1481 ft | 96 kts | 349° |
| 2026-04-26 18:34 | 50.79486 | 30.44068 | 1480 ft | 96 kts | 349° |
| 2026-04-26 18:34 | 50.80157 | 30.44052 | 1480 ft | 97 kts | 349° |
| 2026-04-26 18:35 | 50.80829 | 30.44035 | 1475 ft | 96 kts | 349° |
| 2026-04-26 18:35 | 50.81498 | 30.44019 | 1482 ft | 96 kts | 349° |
| 2026-04-26 18:35 | 50.82162 | 30.44002 | 1470 ft | 95 kts | 349° |
| 2026-04-26 18:35 | 50.82821 | 30.43985 | 1473 ft | 94 kts | 349° |
| 2026-04-26 18:36 | 50.83472 | 30.43969 | 1472 ft | 93 kts | 348° |
| 2026-04-26 18:36 | 50.84103 | 30.43953 | 1473 ft | 91 kts | 348° |
| 2026-04-26 18:36 | 50.84736 | 30.43936 | 1466 ft | 91 kts | 348° |
| 2026-04-26 18:36 | 50.85368 | 30.43920 | 1463 ft | 91 kts | 348° |
| 2026-04-26 18:37 | 50.85995 | 30.43904 | 1467 ft | 90 kts | 348° |
| 2026-04-26 18:37 | 50.86623 | 30.43888 | 1463 ft | 90 kts | 348° |
| 2026-04-26 18:37 | 50.87250 | 30.43872 | 1460 ft | 90 kts | 349° |
| 2026-04-26 18:37 | 50.87881 | 30.43856 | 1460 ft | 91 kts | 349° |
| 2026-04-26 18:38 | 50.88515 | 30.43840 | 1463 ft | 92 kts | 349° |
| 2026-04-26 18:38 | 50.89147 | 30.43760 | 1453 ft | 90 kts | 341° |
| 2026-04-26 18:38 | 50.89767 | 30.43599 | 1468 ft | 92 kts | 342° |
| 2026-04-26 18:38 | 50.90406 | 30.43442 | 1471 ft | 94 kts | 342° |
| 2026-04-26 18:39 | 50.91052 | 30.43281 | 1472 ft | 94 kts | 342° |
| 2026-04-26 18:39 | 50.91702 | 30.43120 | 1471 ft | 95 kts | 342° |
| 2026-04-26 18:39 | 50.92351 | 30.42958 | 1471 ft | 94 kts | 342° |
| 2026-04-26 18:39 | 50.92993 | 30.42800 | 1471 ft | 93 kts | 342° |
| 2026-04-26 18:40 | 50.93628 | 30.42641 | 1469 ft | 93 kts | 342° |
| 2026-04-26 18:40 | 50.94262 | 30.42481 | 1471 ft | 92 kts | 342° |
| 2026-04-26 18:40 | 50.94896 | 30.42322 | 1471 ft | 92 kts | 342° |
| 2026-04-26 18:40 | 50.95524 | 30.42165 | 1475 ft | 91 kts | 341° |
| 2026-04-26 18:41 | 50.96142 | 30.42011 | 1463 ft | 91 kts | 342° |
| 2026-04-26 18:41 | 50.96769 | 30.41854 | 1469 ft | 91 kts | 341° |
| 2026-04-26 18:41 | 50.97409 | 30.41692 | 1474 ft | 92 kts | 342° |
| 2026-04-26 18:41 | 50.98032 | 30.41538 | 1463 ft | 92 kts | 342° |
| 2026-04-26 18:42 | 50.98665 | 30.41381 | 1465 ft | 92 kts | 342° |
| 2026-04-26 18:42 | 50.99298 | 30.41223 | 1462 ft | 92 kts | 342° |
| 2026-04-26 18:42 | 50.99932 | 30.41064 | 1468 ft | 92 kts | 342° |
| 2026-04-26 18:42 | 51.00560 | 30.40907 | 1472 ft | 91 kts | 342° |
| 2026-04-26 18:43 | 51.01181 | 30.40750 | 1459 ft | 90 kts | 342° |
| 2026-04-26 18:43 | 51.01593 | 30.40647 | 1461 ft | 91 kts | 342° |
| 2026-04-26 18:43 | 51.02225 | 30.40487 | 1470 ft | 93 kts | 342° |
| 2026-04-26 18:43 | 51.03083 | 30.40274 | 1471 ft | 94 kts | 342° |
| 2026-04-26 18:44 | 51.03731 | 30.40113 | 1467 ft | 94 kts | 342° |
| 2026-04-26 18:44 | 51.04377 | 30.39951 | 1464 ft | 94 kts | 342° |
| 2026-04-26 18:44 | 51.05021 | 30.39789 | 1465 ft | 93 kts | 342° |
| 2026-04-26 18:44 | 51.05665 | 30.39627 | 1459 ft | 94 kts | 342° |
| 2026-04-26 18:45 | 51.06089 | 30.39522 | 1473 ft | 93 kts | 342° |
| 2026-04-26 18:45 | 51.06736 | 30.39359 | 1469 ft | 94 kts | 342° |
| 2026-04-26 18:45 | 51.07380 | 30.39166 | 1466 ft | 93 kts | 335° |
| 2026-04-26 18:45 | 51.08137 | 30.38540 | 1467 ft | 92 kts | 326° |
| 2026-04-26 18:46 | 51.08507 | 30.38220 | 1480 ft | 91 kts | 326° |
| 2026-04-26 18:46 | 51.09061 | 30.37739 | 1467 ft | 90 kts | 326° |
| 2026-04-26 18:46 | 51.09781 | 30.37109 | 1460 ft | 89 kts | 326° |
| 2026-04-26 18:46 | 51.10150 | 30.36787 | 1467 ft | 90 kts | 326° |
| 2026-04-26 18:47 | 51.10700 | 30.36306 | 1463 ft | 90 kts | 326° |
| 2026-04-26 18:47 | 51.11247 | 30.35829 | 1463 ft | 90 kts | 326° |
| 2026-04-26 18:47 | 51.11787 | 30.35359 | 1460 ft | 90 kts | 326° |
| 2026-04-26 18:47 | 51.12332 | 30.34880 | 1464 ft | 90 kts | 326° |
| 2026-04-26 18:48 | 51.12888 | 30.34394 | 1465 ft | 91 kts | 326° |
| 2026-04-26 18:48 | 51.13442 | 30.33912 | 1463 ft | 90 kts | 326° |
| 2026-04-26 18:48 | 51.13991 | 30.33431 | 1467 ft | 91 kts | 326° |
| 2026-04-26 18:48 | 51.14545 | 30.32947 | 1463 ft | 91 kts | 326° |
| 2026-04-26 18:49 | 51.15098 | 30.32463 | 1463 ft | 91 kts | 326° |
| 2026-04-26 18:49 | 51.15650 | 30.31980 | 1461 ft | 90 kts | 326° |
| 2026-04-26 18:49 | 51.16201 | 30.31497 | 1462 ft | 90 kts | 326° |
| 2026-04-26 18:49 | 51.16751 | 30.31016 | 1463 ft | 90 kts | 326° |
| 2026-04-26 18:50 | 51.17303 | 30.30532 | 1470 ft | 91 kts | 326° |
| 2026-04-26 18:50 | 51.17851 | 30.30050 | 1466 ft | 91 kts | 326° |
| 2026-04-26 18:50 | 51.18407 | 30.29564 | 1465 ft | 91 kts | 326° |
| 2026-04-26 18:50 | 51.18962 | 30.29079 | 1470 ft | 90 kts | 326° |
| 2026-04-26 18:51 | 51.19510 | 30.28597 | 1466 ft | 89 kts | 326° |
| 2026-04-26 18:51 | 51.20053 | 30.28122 | 1473 ft | 89 kts | 326° |
| 2026-04-26 18:51 | 51.20605 | 30.27636 | 1466 ft | 91 kts | 326° |
| 2026-04-26 18:51 | 51.21160 | 30.27149 | 1472 ft | 91 kts | 326° |
| 2026-04-26 18:52 | 51.21714 | 30.26663 | 1471 ft | 91 kts | 326° |
| 2026-04-26 18:52 | 51.22265 | 30.26181 | 1468 ft | 90 kts | 326° |
| 2026-04-26 18:52 | 51.22815 | 30.25697 | 1465 ft | 90 kts | 326° |
| 2026-04-26 18:52 | 51.23360 | 30.25218 | 1464 ft | 89 kts | 326° |
| 2026-04-26 18:53 | 51.23903 | 30.24740 | 1467 ft | 89 kts | 326° |
| 2026-04-26 18:53 | 51.24450 | 30.24259 | 1469 ft | 90 kts | 326° |
| 2026-04-26 18:53 | 51.24999 | 30.23776 | 1473 ft | 91 kts | 326° |
| 2026-04-26 18:53 | 51.25549 | 30.23295 | 1471 ft | 90 kts | 326° |
| 2026-04-26 18:54 | 51.26092 | 30.22815 | 1475 ft | 91 kts | 326° |
| 2026-04-26 18:54 | 51.26644 | 30.22332 | 1471 ft | 90 kts | 326° |
| 2026-04-26 18:54 | 51.27192 | 30.21837 | 1470 ft | 91 kts | 322° |
| 2026-04-26 18:54 | 51.27712 | 30.21270 | 1474 ft | 91 kts | 322° |
| 2026-04-26 18:55 | 51.28236 | 30.20704 | 1471 ft | 91 kts | 321° |
| 2026-04-26 18:55 | 51.28756 | 30.20141 | 1467 ft | 90 kts | 321° |
| 2026-04-26 18:55 | 51.29270 | 30.19587 | 1469 ft | 89 kts | 321° |
| 2026-04-26 18:55 | 51.29778 | 30.19032 | 1467 ft | 89 kts | 321° |
| 2026-04-26 18:56 | 51.30288 | 30.18480 | 1463 ft | 88 kts | 321° |
| 2026-04-26 18:56 | 51.30799 | 30.17928 | 1464 ft | 89 kts | 321° |
| 2026-04-26 18:56 | 51.31314 | 30.17370 | 1468 ft | 90 kts | 321° |
| 2026-04-26 18:56 | 51.31837 | 30.16803 | 1468 ft | 91 kts | 321° |
| 2026-04-26 18:57 | 51.32361 | 30.16237 | 1466 ft | 90 kts | 321° |
| 2026-04-26 18:57 | 51.32701 | 30.15868 | 1476 ft | 89 kts | 321° |
| 2026-04-26 18:57 | 51.33385 | 30.15126 | 1475 ft | 88 kts | 321° |
| 2026-04-26 18:57 | 51.33901 | 30.14567 | 1475 ft | 90 kts | 321° |
| 2026-04-26 18:58 | 51.34414 | 30.14008 | 1471 ft | 91 kts | 321° |
| 2026-04-26 18:58 | 51.34937 | 30.13440 | 1472 ft | 91 kts | 321° |
| 2026-04-26 18:58 | 51.35461 | 30.12874 | 1474 ft | 91 kts | 321° |
| 2026-04-26 18:58 | 51.35983 | 30.12310 | 1475 ft | 91 kts | 321° |
| 2026-04-26 18:59 | 51.36502 | 30.11743 | 1472 ft | 90 kts | 321° |
| 2026-04-26 18:59 | 51.37024 | 30.11176 | 1475 ft | 91 kts | 321° |
| 2026-04-26 18:59 | 51.37498 | 30.10521 | 1471 ft | 90 kts | 307° |
| 2026-04-26 18:59 | 51.37796 | 30.09643 | 1474 ft | 91 kts | 292° |
| 2026-04-26 19:00 | 51.37887 | 30.08637 | 1465 ft | 94 kts | 275° |
| 2026-04-26 19:00 | 51.37747 | 30.07613 | 1471 ft | 98 kts | 258° |
| 2026-04-26 19:00 | 51.37463 | 30.06617 | 1465 ft | 99 kts | 258° |
| 2026-04-26 19:00 | 51.37187 | 30.05617 | 1472 ft | 98 kts | 257° |
| 2026-04-26 19:01 | 51.36913 | 30.04618 | 1466 ft | 98 kts | 257° |
| 2026-04-26 19:01 | 51.36635 | 30.03627 | 1464 ft | 97 kts | 257° |
| 2026-04-26 19:01 | 51.36362 | 30.02645 | 1475 ft | 97 kts | 258° |
| 2026-04-26 19:01 | 51.36085 | 30.01653 | 1475 ft | 98 kts | 257° |
| 2026-04-26 19:02 | 51.35809 | 30.00648 | 1473 ft | 99 kts | 257° |
| 2026-04-26 19:02 | 51.35530 | 29.99644 | 1477 ft | 99 kts | 258° |
| 2026-04-26 19:02 | 51.35254 | 29.98651 | 1471 ft | 96 kts | 258° |
| 2026-04-26 19:02 | 51.35073 | 29.98004 | 1469 ft | 95 kts | 258° |
| 2026-04-26 19:03 | 51.34720 | 29.96731 | 1474 ft | 93 kts | 259° |
| 2026-04-26 19:03 | 51.34459 | 29.95798 | 1478 ft | 93 kts | 259° |
| 2026-04-26 19:03 | 51.34196 | 29.94850 | 1477 ft | 93 kts | 258° |
| 2026-04-26 19:03 | 51.33926 | 29.93884 | 1476 ft | 96 kts | 257° |
| 2026-04-26 19:04 | 51.33655 | 29.92909 | 1485 ft | 97 kts | 257° |
| 2026-04-26 19:04 | 51.33316 | 29.91956 | 1488 ft | 104 kts | 242° |
| 2026-04-26 19:04 | 51.32700 | 29.91230 | 1488 ft | 117 kts | 217° |
| 2026-04-26 19:04 | 51.31860 | 29.90986 | 1479 ft | 128 kts | 191° |
| 2026-04-26 19:05 | 51.30096 | 29.90952 | 1482 ft | 125 kts | 193° |
| 2026-04-26 19:05 | 51.29231 | 29.90924 | 1480 ft | 123 kts | 194° |
| 2026-04-26 19:05 | 51.28382 | 29.90899 | 1482 ft | 122 kts | 194° |
| 2026-04-26 19:06 | 51.27532 | 29.90864 | 1488 ft | 122 kts | 194° |
| 2026-04-26 19:06 | 51.26684 | 29.90835 | 1485 ft | 124 kts | 193° |
| 2026-04-26 19:06 | 51.25825 | 29.90805 | 1485 ft | 123 kts | 194° |
| 2026-04-26 19:06 | 51.24971 | 29.90777 | 1488 ft | 122 kts | 194° |
| 2026-04-26 19:07 | 51.24115 | 29.90747 | 1483 ft | 123 kts | 193° |
| 2026-04-26 19:07 | 51.23261 | 29.90721 | 1487 ft | 122 kts | 194° |
| 2026-04-26 19:07 | 51.22413 | 29.90691 | 1485 ft | 122 kts | 194° |
| 2026-04-26 19:07 | 51.21556 | 29.90660 | 1488 ft | 124 kts | 193° |
| 2026-04-26 19:08 | 51.20694 | 29.90631 | 1492 ft | 124 kts | 193° |
| 2026-04-26 19:08 | 51.19830 | 29.90602 | 1496 ft | 125 kts | 193° |
| 2026-04-26 19:08 | 51.18963 | 29.90573 | 1500 ft | 125 kts | 193° |
| 2026-04-26 19:08 | 51.18092 | 29.90541 | 1499 ft | 125 kts | 193° |
| 2026-04-26 19:09 | 51.17222 | 29.90509 | 1505 ft | 125 kts | 193° |
| 2026-04-26 19:09 | 51.16367 | 29.90484 | 1507 ft | 125 kts | 193° |
| 2026-04-26 19:09 | 51.15496 | 29.90450 | 1504 ft | 125 kts | 193° |
| 2026-04-26 19:09 | 51.14626 | 29.90421 | 1502 ft | 125 kts | 193° |
| 2026-04-26 19:10 | 51.13756 | 29.90398 | 1501 ft | 125 kts | 193° |
| 2026-04-26 19:10 | 51.12888 | 29.90368 | 1500 ft | 125 kts | 193° |
| 2026-04-26 19:10 | 51.12025 | 29.90337 | 1499 ft | 124 kts | 194° |
| 2026-04-26 19:10 | 51.11158 | 29.90306 | 1499 ft | 124 kts | 194° |
| 2026-04-26 19:11 | 51.10287 | 29.90277 | 1504 ft | 125 kts | 193° |
| 2026-04-26 19:11 | 51.09416 | 29.90247 | 1507 ft | 126 kts | 193° |
| 2026-04-26 19:11 | 51.08542 | 29.90221 | 1505 ft | 125 kts | 193° |
| 2026-04-26 19:11 | 51.07686 | 29.90191 | 1504 ft | 125 kts | 193° |
| 2026-04-26 19:12 | 51.06812 | 29.90161 | 1507 ft | 126 kts | 193° |
| 2026-04-26 19:12 | 51.05937 | 29.90129 | 1504 ft | 125 kts | 193° |
| 2026-04-26 19:12 | 51.05067 | 29.90101 | 1503 ft | 125 kts | 193° |
| 2026-04-26 19:12 | 51.04200 | 29.90074 | 1507 ft | 125 kts | 193° |
| 2026-04-26 19:13 | 51.03327 | 29.90042 | 1508 ft | 126 kts | 193° |
| 2026-04-26 19:13 | 51.02447 | 29.90010 | 1513 ft | 127 kts | 193° |
| 2026-04-26 19:13 | 51.01560 | 29.89980 | 1514 ft | 128 kts | 193° |
| 2026-04-26 19:13 | 51.00674 | 29.89950 | 1515 ft | 127 kts | 193° |
| 2026-04-26 19:14 | 50.99796 | 29.89921 | 1509 ft | 126 kts | 193° |
| 2026-04-26 19:14 | 50.98925 | 29.89894 | 1505 ft | 125 kts | 194° |
| 2026-04-26 19:14 | 50.98057 | 29.89864 | 1502 ft | 125 kts | 193° |
| 2026-04-26 19:14 | 50.97479 | 29.89844 | 1501 ft | 125 kts | 193° |
| 2026-04-26 19:15 | 50.96328 | 29.89806 | 1502 ft | 125 kts | 194° |
| 2026-04-26 19:15 | 50.95467 | 29.89776 | 1497 ft | 122 kts | 194° |
| 2026-04-26 19:15 | 50.94620 | 29.89748 | 1508 ft | 122 kts | 194° |
| 2026-04-26 19:15 | 50.93767 | 29.89838 | 1497 ft | 128 kts | 173° |
| 2026-04-26 19:16 | 50.92955 | 29.90490 | 1506 ft | 131 kts | 158° |
| 2026-04-26 19:16 | 50.92157 | 29.91167 | 1508 ft | 131 kts | 160° |
| 2026-04-26 19:16 | 50.91351 | 29.91847 | 1510 ft | 132 kts | 159° |
| 2026-04-26 19:16 | 50.90538 | 29.92533 | 1511 ft | 132 kts | 159° |
| 2026-04-26 19:17 | 50.89727 | 29.93221 | 1514 ft | 132 kts | 159° |
| 2026-04-26 19:17 | 50.88917 | 29.93907 | 1516 ft | 132 kts | 159° |
| 2026-04-26 19:17 | 50.88117 | 29.94581 | 1512 ft | 132 kts | 159° |
| 2026-04-26 19:17 | 50.87307 | 29.95267 | 1517 ft | 132 kts | 159° |
| 2026-04-26 19:18 | 50.86502 | 29.95946 | 1515 ft | 132 kts | 159° |
| 2026-04-26 19:18 | 50.85696 | 29.96625 | 1510 ft | 130 kts | 160° |
| 2026-04-26 19:18 | 50.84894 | 29.97300 | 1508 ft | 132 kts | 159° |
| 2026-04-26 19:18 | 50.84083 | 29.97986 | 1515 ft | 133 kts | 159° |
| 2026-04-26 19:19 | 50.83267 | 29.98673 | 1513 ft | 133 kts | 159° |
| 2026-04-26 19:19 | 50.82455 | 29.99358 | 1519 ft | 132 kts | 159° |
| 2026-04-26 19:19 | 50.81640 | 30.00042 | 1517 ft | 132 kts | 159° |
| 2026-04-26 19:19 | 50.80838 | 30.00717 | 1518 ft | 132 kts | 159° |
| 2026-04-26 19:20 | 50.80029 | 30.01399 | 1523 ft | 132 kts | 159° |
| 2026-04-26 19:20 | 50.79479 | 30.01862 | 1519 ft | 133 kts | 159° |
| 2026-04-26 19:20 | 50.78400 | 30.02770 | 1514 ft | 133 kts | 159° |
| 2026-04-26 19:20 | 50.77585 | 30.03453 | 1516 ft | 133 kts | 159° |
| 2026-04-26 19:21 | 50.76771 | 30.04137 | 1515 ft | 132 kts | 159° |
| 2026-04-26 19:21 | 50.75961 | 30.04820 | 1512 ft | 132 kts | 160° |
| 2026-04-26 19:21 | 50.75145 | 30.05504 | 1515 ft | 133 kts | 159° |
| 2026-04-26 19:21 | 50.74330 | 30.06188 | 1516 ft | 133 kts | 160° |
| 2026-04-26 19:22 | 50.73511 | 30.06874 | 1516 ft | 133 kts | 159° |
| 2026-04-26 19:22 | 50.72695 | 30.07559 | 1520 ft | 133 kts | 159° |
| 2026-04-26 19:22 | 50.71877 | 30.08246 | 1516 ft | 134 kts | 160° |
| 2026-04-26 19:22 | 50.71071 | 30.08920 | 1519 ft | 132 kts | 159° |